createdAt,value
2018-11-05T00:02:05.221Z,46148.65
2018-11-05T00:04:10.582Z,46142.84
2018-11-05T00:06:15.549Z,46129.30
2018-11-05T00:08:20.744Z,46138.98
2018-11-05T00:10:25.588Z,46139.94
2018-11-05T00:12:30.554Z,46134.14
2018-11-05T00:14:37.721Z,46148.65
2018-11-05T00:16:43.139Z,46135.10
2018-11-05T00:18:49.515Z,46136.07
2018-11-05T00:20:54.591Z,46140.91
2018-11-05T00:23:00.687Z,46135.10
2018-11-05T00:25:08.635Z,46133.17
2018-11-05T00:27:13.988Z,46147.68
2018-11-05T00:29:19.711Z,46138.98
2018-11-05T00:31:24.575Z,46150.59
2018-11-05T00:33:29.543Z,46136.07
2018-11-05T00:35:35.353Z,46171.87
2018-11-05T00:37:40.691Z,46133.17
2018-11-05T00:39:45.713Z,46140.91
2018-11-05T00:41:51.129Z,46121.55
2018-11-05T00:43:58.579Z,46153.49
2018-11-05T00:46:03.807Z,46134.14
2018-11-05T00:48:09.049Z,46149.62
2018-11-05T00:50:16.216Z,46162.20
2018-11-05T00:52:22.127Z,46132.20
2018-11-05T00:54:27.273Z,46140.91
2018-11-05T00:56:33.213Z,46146.71
2018-11-05T00:58:39.010Z,46140.91
2018-11-05T01:00:44.290Z,46151.55
2018-11-05T01:02:50.415Z,46152.52
2018-11-05T01:04:55.484Z,46164.14
2018-11-05T01:07:00.791Z,46125.43
2018-11-05T01:09:09.032Z,46133.17
2018-11-05T01:11:14.319Z,46108.01
2018-11-05T01:13:21.297Z,46141.88
2018-11-05T01:15:26.423Z,46163.17
2018-11-05T01:17:31.261Z,46129.30
2018-11-05T01:19:36.078Z,46146.71
2018-11-05T01:21:41.065Z,46145.75
2018-11-05T01:23:45.995Z,46117.68
2018-11-05T01:25:50.927Z,46144.78
2018-11-05T01:27:55.936Z,46136.07
2018-11-05T01:30:00.921Z,46123.49
2018-11-05T01:32:06.378Z,46135.10
2018-11-05T01:34:11.215Z,46159.30
2018-11-05T01:36:16.249Z,46144.78
2018-11-05T01:38:21.584Z,46144.78
2018-11-05T01:40:26.875Z,46144.78
2018-11-05T01:42:31.813Z,46138.98
2018-11-05T01:44:37.387Z,46136.07
2018-11-05T01:46:42.680Z,46148.65
2018-11-05T01:48:47.916Z,46147.68
2018-11-05T01:50:53.195Z,46141.88
2018-11-05T01:52:59.087Z,46136.07
2018-11-05T01:55:04.885Z,46141.88
2018-11-05T01:57:09.979Z,46123.49
2018-11-05T01:59:15.105Z,46140.91
2018-11-05T02:01:20.431Z,46124.46
2018-11-05T02:03:25.560Z,46123.49
2018-11-05T02:05:30.556Z,46140.91
2018-11-05T02:07:35.386Z,46143.81
2018-11-05T02:09:40.307Z,46133.17
2018-11-05T02:11:45.150Z,46147.68
2018-11-05T02:13:49.916Z,46141.88
2018-11-05T02:15:54.744Z,46150.59
2018-11-05T02:17:59.538Z,46147.68
2018-11-05T02:20:05.041Z,46148.65
2018-11-05T02:22:09.880Z,46148.65
2018-11-05T02:24:14.803Z,46123.49
2018-11-05T02:26:19.844Z,46134.14
2018-11-05T02:28:24.953Z,46148.65
2018-11-05T02:30:29.825Z,46135.10
2018-11-05T02:32:34.570Z,46128.33
2018-11-05T02:34:39.343Z,46164.14
2018-11-05T02:36:44.590Z,46155.43
2018-11-05T02:38:49.880Z,46137.04
2018-11-05T02:40:54.913Z,46134.14
2018-11-05T02:42:59.837Z,46156.39
2018-11-05T02:45:06.973Z,46139.94
2018-11-05T02:47:12.417Z,46143.81
2018-11-05T02:49:17.515Z,46165.10
2018-11-05T02:51:22.899Z,46129.30
2018-11-05T02:53:28.741Z,46113.81
2018-11-05T02:55:33.943Z,46118.65
2018-11-05T02:57:39.000Z,46152.52
2018-11-05T02:59:44.941Z,46138.98
2018-11-05T03:01:53.150Z,46140.91
2018-11-05T03:03:58.979Z,46149.62
2018-11-05T03:06:03.980Z,46136.07
2018-11-05T03:08:09.604Z,46149.62
2018-11-05T03:10:15.161Z,46126.39
2018-11-05T03:12:21.003Z,46124.46
2018-11-05T03:14:27.013Z,46129.30
2018-11-05T03:16:32.264Z,46123.49
2018-11-05T03:18:37.604Z,46119.62
2018-11-05T03:20:43.161Z,46143.81
2018-11-05T03:22:48.485Z,46171.87
2018-11-05T03:24:53.975Z,46115.75
2018-11-05T03:26:59.576Z,46148.65
2018-11-05T03:29:05.525Z,46123.49
2018-11-05T03:31:10.406Z,46144.78
2018-11-05T03:33:15.350Z,46143.81
2018-11-05T03:35:20.724Z,46168.01
2018-11-05T03:37:27.025Z,46139.94
2018-11-05T03:39:32.167Z,46136.07
2018-11-05T03:41:37.999Z,46142.84
2018-11-05T03:43:43.590Z,46135.10
2018-11-05T03:45:49.431Z,46161.23
2018-11-05T03:47:54.430Z,46130.27
2018-11-05T03:50:00.125Z,46133.17
2018-11-05T03:52:05.677Z,46126.39
2018-11-05T03:54:10.482Z,46151.55
2018-11-05T03:56:15.662Z,46152.52
2018-11-05T03:58:21.581Z,46138.98
2018-11-05T04:00:26.731Z,46162.20
2018-11-05T04:02:31.757Z,46118.65
2018-11-05T04:04:37.078Z,46133.17
2018-11-05T04:06:42.091Z,46144.78
2018-11-05T04:08:47.549Z,46163.17
2018-11-05T04:10:53.277Z,46136.07
2018-11-05T04:12:58.625Z,46164.14
2018-11-05T04:15:04.108Z,46158.33
2018-11-05T04:17:09.191Z,46151.55
2018-11-05T04:19:14.456Z,46146.71
2018-11-05T04:21:20.141Z,46134.14
2018-11-05T04:23:25.558Z,46133.17
2018-11-05T04:25:30.545Z,46157.36
2018-11-05T04:27:35.698Z,46139.94
2018-11-05T04:29:40.488Z,46133.17
2018-11-05T04:31:45.532Z,46158.33
2018-11-05T04:33:51.876Z,46142.84
2018-11-05T04:35:57.222Z,46129.30
2018-11-05T04:38:02.595Z,46162.20
2018-11-05T04:40:09.766Z,46141.88
2018-11-05T04:42:16.310Z,46150.59
2018-11-05T04:44:23.677Z,46147.68
2018-11-05T04:46:31.097Z,46127.36
2018-11-05T04:48:38.789Z,46159.30
2018-11-05T04:50:47.152Z,46122.52
2018-11-05T04:52:53.504Z,46152.52
2018-11-05T04:55:00.480Z,46165.10
2018-11-05T04:57:07.551Z,46159.30
2018-11-05T04:59:13.239Z,46134.14
2018-11-05T05:01:18.793Z,46145.75
2018-11-05T05:03:24.733Z,46169.94
2018-11-05T05:05:31.046Z,46163.17
2018-11-05T05:07:37.338Z,46143.81
2018-11-05T05:09:43.536Z,46165.10
2018-11-05T05:11:48.989Z,46142.84
2018-11-05T05:13:54.834Z,46143.81
2018-11-05T05:16:01.223Z,46157.36
2018-11-05T05:18:08.473Z,46152.52
2018-11-05T05:20:15.890Z,46145.75
2018-11-05T05:24:40.111Z,46160.27
2018-11-05T05:26:45.695Z,46180.59
2018-11-05T05:28:52.709Z,46168.97
2018-11-05T05:30:58.038Z,46163.17
2018-11-05T05:33:03.444Z,46152.52
2018-11-05T05:35:10.150Z,46157.36
2018-11-05T05:37:16.040Z,46149.62
2018-11-05T05:39:22.932Z,46145.75
2018-11-05T05:41:29.168Z,46167.04
2018-11-05T05:43:35.908Z,46152.52
2018-11-05T05:45:43.016Z,46157.36
2018-11-05T05:50:00.558Z,46135.10
2018-11-05T05:52:07.708Z,46150.59
2018-11-05T05:54:14.124Z,46168.97
2018-11-05T05:56:25.156Z,46157.36
2018-11-05T05:58:31.440Z,46153.49
2018-11-05T06:00:38.199Z,46147.68
2018-11-05T06:02:48.802Z,46161.23
2018-11-05T06:04:54.481Z,46146.71
2018-11-05T06:07:00.781Z,46162.20
2018-11-05T06:09:10.141Z,46168.97
2018-11-05T06:11:24.393Z,46162.20
2018-11-05T06:13:36.569Z,46156.39
2018-11-05T06:15:42.474Z,46158.33
2018-11-05T06:17:49.620Z,46162.20
2018-11-05T06:19:55.722Z,46149.62
2018-11-05T06:22:01.371Z,46172.84
2018-11-05T06:24:07.362Z,46181.55
2018-11-05T06:26:13.803Z,46166.07
2018-11-05T06:28:20.006Z,46168.01
2018-11-05T06:30:25.212Z,46168.97
2018-11-05T06:32:31.959Z,46171.87
2018-11-05T06:34:38.073Z,46187.36
2018-11-05T06:36:44.559Z,46188.33
2018-11-05T06:38:50.971Z,46158.33
2018-11-05T06:40:57.516Z,46190.27
2018-11-05T06:43:04.758Z,46168.01
2018-11-05T06:45:13.021Z,46191.23
2018-11-05T06:47:19.555Z,46204.78
2018-11-05T06:49:24.688Z,46189.30
2018-11-05T06:51:31.755Z,46184.46
2018-11-05T06:53:38.877Z,46189.30
2018-11-05T06:55:54.668Z,46191.23
2018-11-05T06:58:00.663Z,46197.04
2018-11-05T07:00:22.513Z,46192.20
2018-11-05T07:02:29.552Z,46177.68
2018-11-05T07:06:51.550Z,46193.17
2018-11-05T07:08:59.182Z,46182.52
2018-11-05T07:11:07.243Z,46184.46
2018-11-05T07:13:14.211Z,46192.20
2018-11-05T07:15:22.029Z,46194.13
2018-11-05T07:17:29.385Z,46205.75
2018-11-05T07:19:37.218Z,46196.07
2018-11-05T07:21:46.172Z,46200.91
2018-11-05T07:23:52.639Z,46203.81
2018-11-05T07:25:59.655Z,46196.07
2018-11-05T07:28:07.388Z,46211.55
2018-11-05T07:30:17.326Z,46172.84
2018-11-05T07:32:24.127Z,46205.75
2018-11-05T07:34:30.280Z,46187.36
2018-11-05T07:36:41.686Z,46199.94
2018-11-05T07:38:48.534Z,46197.04
2018-11-05T07:40:56.850Z,46208.65
2018-11-05T07:43:05.635Z,46201.88
2018-11-05T07:45:22.987Z,46209.62
2018-11-05T07:47:30.172Z,46213.49
2018-11-05T07:49:37.378Z,46215.43
2018-11-05T07:51:44.111Z,46199.94
2018-11-05T07:53:50.619Z,46198.97
2018-11-05T07:55:56.868Z,46204.78
2018-11-05T07:58:05.380Z,46199.94
2018-11-05T08:00:21.620Z,46234.78
2018-11-05T08:02:36.795Z,46214.46
2018-11-05T08:04:44.639Z,46209.62
2018-11-05T08:06:53.350Z,46235.75
2018-11-05T08:08:59.902Z,46234.78
2018-11-05T08:11:06.932Z,46258.97
2018-11-05T08:13:13.182Z,46228.97
2018-11-05T08:15:22.311Z,46228.01
2018-11-05T08:17:28.711Z,46234.78
2018-11-05T08:19:37.168Z,46227.04
2018-11-05T08:21:44.182Z,46258.01
2018-11-05T08:23:52.482Z,46246.39
2018-11-05T08:25:59.558Z,46224.13
2018-11-05T08:28:07.613Z,46241.55
2018-11-05T08:30:18.739Z,46215.43
2018-11-05T08:32:25.394Z,46233.81
2018-11-05T08:34:33.013Z,46251.23
2018-11-05T08:36:42.113Z,46248.33
2018-11-05T08:38:47.727Z,46219.30
2018-11-05T08:40:53.874Z,46242.52
2018-11-05T08:43:00.356Z,46264.78
2018-11-05T08:45:10.127Z,46235.75
2018-11-05T08:47:16.173Z,46245.43
2018-11-05T08:49:24.244Z,46251.23
2018-11-05T08:51:30.936Z,46254.14
2018-11-05T08:53:37.224Z,46246.39
2018-11-05T08:55:44.526Z,46234.78
2018-11-05T08:57:51.374Z,46232.84
2018-11-05T08:59:57.599Z,46256.07
2018-11-05T09:02:04.311Z,46232.84
2018-11-05T09:04:09.569Z,46240.59
2018-11-05T09:06:15.584Z,46257.04
2018-11-05T09:08:21.287Z,46249.30
2018-11-05T09:10:27.048Z,46244.46
2018-11-05T09:12:32.319Z,46249.30
2018-11-05T09:14:37.430Z,46272.52
2018-11-05T09:16:42.374Z,46258.97
2018-11-05T09:18:47.482Z,46250.26
2018-11-05T09:20:52.660Z,46265.75
2018-11-05T09:22:58.044Z,46258.01
2018-11-05T09:25:03.218Z,46256.07
2018-11-05T09:27:08.623Z,46258.97
2018-11-05T09:29:14.213Z,46242.52
2018-11-05T09:31:20.529Z,46249.30
2018-11-05T09:33:26.735Z,46259.94
2018-11-05T09:35:32.492Z,46264.78
2018-11-05T09:37:38.973Z,46248.33
2018-11-05T09:39:44.997Z,46256.07
2018-11-05T09:41:51.877Z,46258.97
2018-11-05T09:43:58.341Z,46259.94
2018-11-05T09:46:04.025Z,46273.49
2018-11-05T09:48:09.672Z,46279.30
2018-11-05T09:50:15.839Z,46252.20
2018-11-05T09:52:22.271Z,46270.59
2018-11-05T09:54:29.014Z,46278.33
2018-11-05T09:56:36.081Z,46268.65
2018-11-05T09:58:42.333Z,46274.46
2018-11-05T10:00:48.574Z,46251.23
2018-11-05T10:02:58.820Z,46273.49
2018-11-05T10:05:04.588Z,46276.39
2018-11-05T10:07:11.479Z,46258.97
2018-11-05T10:09:16.581Z,46271.55
2018-11-05T10:11:21.964Z,46272.52
2018-11-05T10:13:26.952Z,46286.07
2018-11-05T10:15:32.104Z,46268.65
2018-11-05T10:20:15.140Z,46261.87
2018-11-05T10:22:21.734Z,46286.07
2018-11-05T10:24:28.127Z,46283.17
2018-11-05T10:26:35.568Z,46272.52
2018-11-05T10:28:41.103Z,46286.07
2018-11-05T10:30:46.438Z,46289.94
2018-11-05T10:32:54.081Z,46284.14
2018-11-05T10:35:03.035Z,46270.59
2018-11-05T10:37:08.694Z,46278.33
2018-11-05T10:39:15.009Z,46290.91
2018-11-05T10:41:23.379Z,46279.30
2018-11-05T10:43:40.253Z,46274.46
2018-11-05T10:45:46.023Z,46287.04
2018-11-05T10:47:51.762Z,46272.52
2018-11-05T10:49:57.641Z,46281.23
2018-11-05T10:52:02.934Z,46288.01
2018-11-05T10:54:11.477Z,46287.04
2018-11-05T10:56:19.375Z,46298.65
2018-11-05T10:58:24.272Z,46290.91
2018-11-05T11:00:35.936Z,46293.81
2018-11-05T11:02:41.100Z,46274.46
2018-11-05T11:04:46.439Z,46290.91
2018-11-05T11:06:53.432Z,46300.59
2018-11-05T11:09:00.573Z,46297.68
2018-11-05T11:11:07.219Z,46307.36
2018-11-05T11:13:28.800Z,46322.85
2018-11-05T11:15:35.386Z,46300.59
2018-11-05T11:17:41.098Z,46291.88
2018-11-05T11:19:46.122Z,46300.59
2018-11-05T11:21:51.509Z,46320.91
2018-11-05T11:23:59.119Z,46288.97
2018-11-05T11:26:05.495Z,46315.11
2018-11-05T11:28:11.358Z,46301.55
2018-11-05T11:30:19.113Z,46318.01
2018-11-05T11:32:24.248Z,46286.07
2018-11-05T11:34:29.186Z,46314.14
2018-11-05T11:36:34.187Z,46294.78
2018-11-05T11:38:39.032Z,46314.14
2018-11-05T11:40:43.826Z,46297.68
2018-11-05T11:42:49.280Z,46292.84
2018-11-05T11:44:54.496Z,46292.84
2018-11-05T11:46:59.402Z,46307.36
2018-11-05T11:49:05.036Z,46315.11
2018-11-05T11:51:15.070Z,46311.23
2018-11-05T11:53:23.447Z,46303.49
2018-11-05T11:55:29.554Z,46318.97
2018-11-05T11:57:36.333Z,46298.65
2018-11-05T11:59:42.238Z,46312.20
2018-11-05T12:04:44.242Z,46298.65
2018-11-05T12:06:49.924Z,46313.17
2018-11-05T12:08:55.427Z,46310.27
2018-11-05T12:11:01.038Z,46316.07
2018-11-05T12:13:06.849Z,46325.75
2018-11-05T12:15:12.871Z,46311.23
2018-11-05T12:17:18.277Z,46323.81
2018-11-05T12:19:23.337Z,46308.33
2018-11-05T12:21:28.435Z,46312.20
2018-11-05T12:23:35.193Z,46316.07
2018-11-05T12:25:40.406Z,46296.72
2018-11-05T12:27:46.010Z,46318.97
2018-11-05T12:29:52.009Z,46310.27
2018-11-05T12:31:58.386Z,46313.17
2018-11-05T12:34:03.939Z,46313.17
2018-11-05T12:36:09.107Z,46291.88
2018-11-05T12:38:14.063Z,46306.39
2018-11-05T12:40:19.891Z,46305.43
2018-11-05T12:42:24.807Z,46296.72
2018-11-05T12:44:29.655Z,46320.91
2018-11-05T12:46:34.556Z,46301.55
2018-11-05T12:48:39.353Z,46290.91
2018-11-05T12:50:44.883Z,46301.55
2018-11-05T12:52:51.657Z,46317.04
2018-11-05T12:54:57.090Z,46310.27
2018-11-05T12:57:02.254Z,46300.59
2018-11-05T12:59:07.590Z,46301.55
2018-11-05T13:01:14.953Z,46304.46
2018-11-05T13:03:20.478Z,46318.97
2018-11-05T13:05:28.912Z,46308.33
2018-11-05T13:07:34.257Z,46284.14
2018-11-05T13:09:39.229Z,46301.55
2018-11-05T13:11:44.851Z,46291.88
2018-11-05T13:13:53.685Z,46304.46
2018-11-05T13:16:11.662Z,46317.04
2018-11-05T13:18:18.368Z,46282.20
2018-11-05T13:20:24.360Z,46306.39
2018-11-05T13:22:29.957Z,46300.59
2018-11-05T13:24:34.974Z,46313.17
2018-11-05T13:26:40.559Z,46307.36
2018-11-05T13:28:45.638Z,46291.88
2018-11-05T13:30:54.927Z,46301.55
2018-11-05T13:33:01.050Z,46304.46
2018-11-05T13:35:08.634Z,46295.75
2018-11-05T13:37:14.502Z,46284.14
2018-11-05T13:39:21.920Z,46301.55
2018-11-05T13:41:27.641Z,46308.33
2018-11-05T13:43:32.483Z,46315.11
2018-11-05T13:45:37.692Z,46288.97
2018-11-05T13:47:42.937Z,46312.20
2018-11-05T13:49:47.701Z,46307.36
2018-11-05T13:51:52.961Z,46302.52
2018-11-05T13:53:58.181Z,46318.97
2018-11-05T13:56:03.276Z,46296.72
2018-11-05T13:58:08.986Z,46311.23
2018-11-05T14:00:16.543Z,46306.39
2018-11-05T14:02:22.324Z,46324.78
2018-11-05T14:04:27.429Z,46300.59
2018-11-05T14:06:32.427Z,46297.68
2018-11-05T14:08:37.242Z,46299.62
2018-11-05T14:10:42.089Z,46290.91
2018-11-05T14:12:47.283Z,46299.62
2018-11-05T14:14:51.982Z,46312.20
2018-11-05T14:16:56.808Z,46312.20
2018-11-05T14:19:01.549Z,46278.33
2018-11-05T14:21:06.349Z,46303.49
2018-11-05T14:23:11.143Z,46302.52
2018-11-05T14:25:17.984Z,46293.81
2018-11-05T14:27:23.533Z,46281.23
2018-11-05T14:29:28.742Z,46304.46
2018-11-05T14:31:35.622Z,46301.55
2018-11-05T14:33:41.219Z,46302.52
2018-11-05T14:35:46.538Z,46295.75
2018-11-05T14:37:51.780Z,46301.55
2018-11-05T14:39:57.160Z,46310.27
2018-11-05T14:42:02.751Z,46317.04
2018-11-05T14:44:09.855Z,46321.88
2018-11-05T14:46:15.994Z,46290.91
2018-11-05T14:48:23.429Z,46313.17
2018-11-05T14:50:29.731Z,46314.14
2018-11-05T14:52:36.927Z,46310.27
2018-11-05T14:54:43.674Z,46257.04
2018-11-05T14:56:50.777Z,46288.01
2018-11-05T14:58:56.103Z,46291.88
2018-11-05T15:01:00.896Z,46305.43
2018-11-05T15:03:06.039Z,46300.59
2018-11-05T15:05:12.115Z,46305.43
2018-11-05T15:07:16.882Z,46290.91
2018-11-05T15:09:21.631Z,46288.97
2018-11-05T15:11:26.420Z,46293.81
2018-11-05T15:13:31.212Z,46299.62
2018-11-05T15:15:35.980Z,46318.01
2018-11-05T15:17:41.205Z,46302.52
2018-11-05T15:19:46.552Z,46299.62
2018-11-05T15:21:51.202Z,46287.04
2018-11-05T15:23:56.140Z,46288.97
2018-11-05T15:26:01.105Z,46286.07
2018-11-05T15:28:06.131Z,46291.88
2018-11-05T15:30:15.094Z,46297.68
2018-11-05T15:32:20.019Z,46285.10
2018-11-05T15:34:24.921Z,46273.49
2018-11-05T15:36:29.878Z,46310.27
2018-11-05T15:38:34.706Z,46275.43
2018-11-05T15:40:39.510Z,46289.94
2018-11-05T15:42:44.444Z,46288.97
2018-11-05T15:44:49.420Z,46281.23
2018-11-05T15:46:54.179Z,46287.04
2018-11-05T15:49:00.057Z,46276.39
2018-11-05T15:51:06.623Z,46278.33
2018-11-05T15:53:13.606Z,46282.20
2018-11-05T15:55:18.329Z,46285.10
2018-11-05T15:57:23.323Z,46286.07
2018-11-05T15:59:28.390Z,46261.87
2018-11-05T16:01:33.344Z,46256.07
2018-11-05T16:03:38.458Z,46280.27
2018-11-05T16:05:43.247Z,46270.59
2018-11-05T16:07:48.303Z,46272.52
2018-11-05T16:09:53.158Z,46288.01
2018-11-05T16:11:59.585Z,46273.49
2018-11-05T16:14:04.569Z,46270.59
2018-11-05T16:16:10.465Z,46288.01
2018-11-05T16:18:17.475Z,46145.75
2018-11-05T16:20:24.059Z,46256.07
2018-11-05T16:22:30.115Z,46276.39
2018-11-05T16:24:36.011Z,46261.87
2018-11-05T16:26:41.666Z,46269.62
2018-11-05T16:28:48.266Z,46255.10
2018-11-05T16:30:53.882Z,46284.14
2018-11-05T16:32:59.669Z,46284.14
2018-11-05T16:35:07.456Z,46273.49
2018-11-05T16:37:12.967Z,46271.55
2018-11-05T16:39:19.010Z,46258.97
2018-11-05T16:41:24.472Z,46274.46
2018-11-05T16:43:31.524Z,46255.10
2018-11-05T16:45:36.788Z,46262.84
2018-11-05T16:47:43.164Z,46271.55
2018-11-05T16:49:49.665Z,46270.59
2018-11-05T16:51:56.022Z,46263.81
2018-11-05T16:54:02.685Z,46271.55
2018-11-05T16:56:08.810Z,46271.55
2018-11-05T16:58:14.282Z,46297.68
2018-11-05T17:00:20.645Z,46263.81
2018-11-05T17:02:25.945Z,46271.55
2018-11-05T17:04:30.896Z,46266.71
2018-11-05T17:06:35.956Z,46252.20
2018-11-05T17:08:42.415Z,46232.84
2018-11-05T17:10:48.085Z,46252.20
2018-11-05T17:12:55.601Z,46254.14
2018-11-05T17:15:02.502Z,46265.75
2018-11-05T17:17:10.887Z,46258.01
2018-11-05T17:19:17.734Z,46261.87
2018-11-05T17:21:24.967Z,46265.75
2018-11-05T17:23:30.361Z,46238.65
2018-11-05T17:25:36.451Z,46258.01
2018-11-05T17:27:42.742Z,46236.71
2018-11-05T17:29:49.528Z,46232.84
2018-11-05T17:31:57.569Z,46269.62
2018-11-05T17:34:04.806Z,46252.20
2018-11-05T17:36:12.018Z,46235.75
2018-11-05T17:38:20.794Z,46247.36
2018-11-05T17:40:28.818Z,46253.17
2018-11-05T17:42:36.327Z,46266.71
2018-11-05T17:44:43.387Z,46245.43
2018-11-05T17:46:49.214Z,46261.87
2018-11-05T17:48:56.548Z,46251.23
2018-11-05T17:51:01.921Z,46263.81
2018-11-05T17:53:08.452Z,46253.17
2018-11-05T17:55:16.866Z,46266.71
2018-11-05T17:57:26.523Z,46258.01
2018-11-05T17:59:33.582Z,46250.26
2018-11-05T18:01:39.903Z,46265.75
2018-11-05T18:03:47.051Z,46261.87
2018-11-05T18:05:52.348Z,46245.43
2018-11-05T18:07:59.715Z,46263.81
2018-11-05T18:10:09.781Z,46231.87
2018-11-05T18:12:18.265Z,46238.65
2018-11-05T18:14:25.837Z,46240.59
2018-11-05T18:16:33.419Z,46263.81
2018-11-05T18:18:41.522Z,46258.01
2018-11-05T18:20:48.525Z,46251.23
2018-11-05T18:22:56.008Z,46232.84
2018-11-05T18:25:01.101Z,46247.36
2018-11-05T18:27:08.777Z,46247.36
2018-11-05T18:29:15.288Z,46232.84
2018-11-05T18:31:23.547Z,46243.49
2018-11-05T18:33:29.211Z,46250.26
2018-11-05T18:35:34.298Z,46233.81
2018-11-05T18:37:39.637Z,46245.43
2018-11-05T18:39:45.124Z,46243.49
2018-11-05T18:41:50.620Z,46239.62
2018-11-05T18:43:56.827Z,46248.33
2018-11-05T18:46:02.323Z,46283.17
2018-11-05T18:48:07.628Z,46238.65
2018-11-05T18:50:16.183Z,46229.94
2018-11-05T18:52:22.203Z,46262.84
2018-11-05T18:54:27.829Z,46247.36
2018-11-05T18:56:34.783Z,46249.30
2018-11-05T18:58:41.445Z,46254.14
2018-11-05T19:00:52.797Z,46271.55
2018-11-05T19:02:58.801Z,46242.52
2018-11-05T19:05:08.269Z,46250.26
2018-11-05T19:07:14.909Z,46270.59
2018-11-05T19:09:20.981Z,46243.49
2018-11-05T19:11:32.470Z,46248.33
2018-11-05T19:13:38.031Z,46258.01
2018-11-05T19:15:43.874Z,46271.55
2018-11-05T19:17:49.705Z,46244.46
2018-11-05T19:19:57.400Z,46267.68
2018-11-05T19:22:09.074Z,46240.59
2018-11-05T19:24:17.163Z,46265.75
2018-11-05T19:26:22.850Z,46255.10
2018-11-05T19:28:29.590Z,46245.43
2018-11-05T19:30:36.396Z,46246.39
2018-11-05T19:32:47.939Z,46242.52
2018-11-05T19:34:54.663Z,46258.01
2018-11-05T19:37:00.034Z,46253.17
2018-11-05T19:39:10.521Z,46257.04
2018-11-05T19:41:17.781Z,46253.17
2018-11-05T19:43:23.970Z,46239.62
2018-11-05T19:45:29.625Z,46236.71
2018-11-05T19:47:37.740Z,46241.55
2018-11-05T19:49:43.678Z,46244.46
2018-11-05T19:51:50.551Z,46243.49
2018-11-05T19:53:56.910Z,46250.26
2018-11-05T19:56:02.227Z,46228.01
2018-11-05T19:58:09.810Z,46269.62
2018-11-05T20:00:20.661Z,46230.91
2018-11-05T20:02:31.194Z,46238.65
2018-11-05T20:04:38.740Z,46221.23
2018-11-05T20:06:45.392Z,46232.84
2018-11-05T20:08:51.469Z,46241.55
2018-11-05T20:10:57.675Z,46241.55
2018-11-05T20:13:03.558Z,46239.62
2018-11-05T20:15:10.410Z,46249.30
2018-11-05T20:17:17.084Z,46252.20
2018-11-05T20:19:24.036Z,46237.68
2018-11-05T20:21:29.206Z,46234.78
2018-11-05T20:23:39.251Z,46229.94
2018-11-05T20:25:45.564Z,46239.62
2018-11-05T20:27:50.999Z,46225.10
2018-11-05T20:29:56.328Z,46259.94
2018-11-05T20:32:03.971Z,46240.59
2018-11-05T20:34:10.523Z,46228.97
2018-11-05T20:36:17.781Z,46234.78
2018-11-05T20:38:24.660Z,46218.33
2018-11-05T20:40:32.516Z,46231.87
2018-11-05T20:42:39.215Z,46228.01
2018-11-05T20:44:46.672Z,46236.71
2018-11-05T20:46:57.134Z,46239.62
2018-11-05T20:49:07.194Z,46242.52
2018-11-05T20:51:15.598Z,46221.23
2018-11-05T20:53:27.091Z,46222.20
2018-11-05T20:55:33.116Z,46238.65
2018-11-05T20:57:42.139Z,46220.26
2018-11-05T20:59:52.029Z,46271.55
2018-11-05T21:01:56.909Z,46242.52
2018-11-05T21:04:02.271Z,46233.81
2018-11-05T21:06:08.090Z,46249.30
2018-11-05T21:08:14.505Z,46198.00
2018-11-05T21:10:20.523Z,46256.07
2018-11-05T21:12:27.969Z,46231.87
2018-11-05T21:14:37.381Z,46249.30
2018-11-05T21:16:43.628Z,46241.55
2018-11-05T21:18:51.528Z,46239.62
2018-11-05T21:20:58.617Z,46234.78
2018-11-05T21:23:04.057Z,46245.43
2018-11-05T21:25:13.080Z,46231.87
2018-11-05T21:27:22.034Z,46243.49
2018-11-05T21:29:29.862Z,46249.30
2018-11-05T21:31:36.621Z,46240.59
2018-11-05T21:33:42.827Z,46227.04
2018-11-05T21:35:47.904Z,46236.71
2018-11-05T21:37:52.871Z,46242.52
2018-11-05T21:39:58.048Z,46228.97
2018-11-05T21:42:02.917Z,46227.04
2018-11-05T21:44:08.346Z,46232.84
2018-11-05T21:46:13.250Z,46230.91
2018-11-05T21:48:18.253Z,46210.59
2018-11-05T21:50:23.260Z,46239.62
2018-11-05T21:52:28.213Z,46225.10
2018-11-05T21:54:34.030Z,46236.71
2018-11-05T21:56:39.049Z,46252.20
2018-11-05T21:58:44.173Z,46221.23
2018-11-05T22:00:49.232Z,46243.49
2018-11-05T22:03:03.083Z,46235.75
2018-11-05T22:05:08.130Z,46223.17
2018-11-05T22:07:13.504Z,46227.04
2018-11-05T22:09:18.395Z,46256.07
2018-11-05T22:11:23.266Z,46242.52
2018-11-05T22:13:28.142Z,46234.78
2018-11-05T22:15:39.811Z,46225.10
2018-11-05T22:17:44.738Z,46246.39
2018-11-05T22:19:50.137Z,46244.46
2018-11-05T22:21:55.092Z,46238.65
2018-11-05T22:24:00.247Z,46231.87
2018-11-05T22:26:05.290Z,46209.62
2018-11-05T22:28:10.150Z,46235.75
2018-11-05T22:30:14.983Z,46234.78
2018-11-05T22:32:19.909Z,46235.75
2018-11-05T22:34:24.675Z,46249.30
2018-11-05T22:36:29.493Z,46260.91
2018-11-05T22:38:35.452Z,46252.20
2018-11-05T22:40:46.797Z,46243.49
2018-11-05T22:42:51.527Z,46233.81
2018-11-05T22:44:56.554Z,46239.62
2018-11-05T22:47:01.444Z,46229.94
2018-11-05T22:49:06.372Z,46216.39
2018-11-05T22:51:11.157Z,46243.49
2018-11-05T22:53:15.967Z,46236.71
2018-11-05T22:55:21.124Z,46222.20
2018-11-05T22:59:46.614Z,46237.68
2018-11-05T23:01:52.414Z,46238.65
2018-11-05T23:03:57.558Z,46231.87
2018-11-05T23:06:02.585Z,46232.84
2018-11-05T23:08:07.818Z,46227.04
2018-11-05T23:10:12.516Z,46228.97
2018-11-05T23:12:17.340Z,46239.62
2018-11-05T23:14:22.064Z,46232.84
2018-11-05T23:16:26.802Z,46231.87
2018-11-05T23:18:31.530Z,46244.46
2018-11-05T23:20:36.413Z,46223.17
2018-11-05T23:22:41.985Z,46207.68
2018-11-05T23:24:46.868Z,46240.59
2018-11-05T23:26:51.639Z,46243.49
2018-11-05T23:28:56.359Z,46232.84
2018-11-05T23:31:01.084Z,46230.91
2018-11-05T23:33:05.927Z,46208.65
2018-11-05T23:35:11.351Z,46204.78
2018-11-05T23:37:16.085Z,46228.97
2018-11-05T23:39:20.738Z,46207.68
2018-11-05T23:41:25.459Z,46245.43
2018-11-05T23:43:30.171Z,46229.94
2018-11-05T23:45:35.016Z,46224.13
2018-11-05T23:47:39.752Z,46221.23
2018-11-05T23:49:44.513Z,46256.07
2018-11-05T23:51:49.526Z,46204.78
2018-11-05T23:53:54.325Z,46223.17
2018-11-05T23:56:00.326Z,46224.13
2018-11-05T23:58:05.523Z,46238.65
